Time;durP1;ratioP1;P1;durP2;ratioP2;P2;SDS_P1;SDS_P2;PMS_P1;PMS_P2;Temp;Humidity;BMP_temperature;BMP_pressure;BME280_temperature;BME280_humidity;BME280_pressure;Samples;Min_cycle;Max_cycle;Signal;HPM_P1;HPM_P2
2023/09/03 00:08:19;;;;;;;2.20;0.60;;;;;;;;;;20829681;28;20241;-82
2023/09/03 00:18:21;;;;;;;1.00;0.52;;;;;;;;;;20826753;28;20784;-81
2023/09/03 00:28:25;;;;;;;1.00;0.60;;;;;;;;;;20826121;28;20773;-87
2023/09/03 00:38:28;;;;;;;2.25;0.70;;;;;;;;;;20825712;28;20234;-87
2023/09/03 00:48:30;;;;;;;0.80;0.60;;;;;;;;;;20767987;28;20572;-86
2023/09/03 00:58:35;;;;;;;0.93;0.50;;;;;;;;;;20825530;28;20245;-87
2023/09/03 01:08:37;;;;;;;4.50;0.70;;;;;;;;;;20812464;28;20552;-88
2023/09/03 01:18:39;;;;;;;0.63;0.43;;;;;;;;;;20823897;28;20237;-85
2023/09/03 01:28:42;;;;;;;0.47;0.40;;;;;;;;;;20820807;28;20232;-86
2023/09/03 01:38:44;;;;;;;0.65;0.40;;;;;;;;;;20818646;28;20236;-85
2023/09/03 01:49:21;;;;;;;0.98;0.60;;;;;;;;;;20848298;28;20267;-89
2023/09/03 01:59:25;;;;;;;0.68;0.50;;;;;;;;;;20756886;28;20290;-86
2023/09/03 02:09:27;;;;;;;1.90;0.60;;;;;;;;;;20816641;28;20267;-86
2023/09/03 02:19:29;;;;;;;0.85;0.47;;;;;;;;;;20804939;28;20241;-86
2023/09/03 02:29:31;;;;;;;0.80;0.60;;;;;;;;;;20786685;28;20248;-89
2023/09/03 02:39:36;;;;;;;0.90;0.60;;;;;;;;;;20821191;28;20275;-85
2023/09/03 02:49:38;;;;;;;0.90;0.60;;;;;;;;;;20778555;28;20240;-86
2023/09/03 02:59:44;;;;;;;1.40;0.67;;;;;;;;;;20845557;28;20227;-87
2023/09/03 03:09:49;;;;;;;1.20;0.60;;;;;;;;;;20863823;28;20232;-85
2023/09/03 03:19:51;;;;;;;0.70;0.60;;;;;;;;;;20832700;28;20236;-85
2023/09/03 03:29:53;;;;;;;1.70;0.57;;;;;;;;;;20830592;28;20220;-87
2023/09/03 03:39:55;;;;;;;2.40;0.50;;;;;;;;;;20839497;28;20799;-85
2023/09/03 03:49:57;;;;;;;0.83;0.53;;;;;;;;;;20833131;28;20294;-86
2023/09/03 03:59:59;;;;;;;1.47;0.70;;;;;;;;;;20824467;28;20584;-86
2023/09/03 04:10:00;;;;;;;1.53;0.67;;;;;;;;;;20793090;28;20291;-88
2023/09/03 04:20:02;;;;;;;1.33;0.70;;;;;;;;;;20787236;28;20222;-88
2023/09/03 04:30:05;;;;;;;1.43;0.90;;;;;;;;;;20831709;28;20252;-86
2023/09/03 04:40:08;;;;;;;2.40;0.60;;;;;;;;;;20807789;28;20693;-86
2023/09/03 04:50:10;;;;;;;3.43;0.90;;;;;;;;;;20745003;28;20787;-84
2023/09/03 05:00:12;;;;;;;0.70;0.60;;;;;;;;;;20813141;28;20669;-88
2023/09/03 05:10:15;;;;;;;1.47;0.80;;;;;;;;;;20785036;28;20227;-85
2023/09/03 05:20:17;;;;;;;1.00;0.60;;;;;;;;;;20836085;28;20269;-85
2023/09/03 05:30:20;;;;;;;0.70;0.60;;;;;;;;;;20809983;28;20220;-85
2023/09/03 05:40:21;;;;;;;0.87;0.50;;;;;;;;;;20833637;28;20211;-84
2023/09/03 05:50:24;;;;;;;0.87;0.53;;;;;;;;;;20829057;28;20273;-85
2023/09/03 06:00:27;;;;;;;1.10;0.70;;;;;;;;;;20778496;28;20217;-86
2023/09/03 06:10:32;;;;;;;1.10;0.70;;;;;;;;;;20814201;28;20297;-84
2023/09/03 06:20:37;;;;;;;1.03;0.67;;;;;;;;;;20778932;28;20224;-85
2023/09/03 06:30:39;;;;;;;1.50;0.60;;;;;;;;;;20892096;28;20263;-85
2023/09/03 06:40:40;;;;;;;1.33;0.90;;;;;;;;;;20720647;28;20239;-85
2023/09/03 06:50:42;;;;;;;1.33;0.60;;;;;;;;;;20854905;28;20271;-85
2023/09/03 07:00:44;;;;;;;1.47;0.80;;;;;;;;;;20791916;28;20596;-86
2023/09/03 07:10:46;;;;;;;1.37;0.90;;;;;;;;;;20832701;28;20229;-85
2023/09/03 07:20:47;;;;;;;1.57;1.00;;;;;;;;;;20799711;28;20218;-86
2023/09/03 07:30:50;;;;;;;2.77;1.40;;;;;;;;;;20813715;28;20233;-86
2023/09/03 07:40:52;;;;;;;2.40;1.60;;;;;;;;;;20833452;28;20689;-86
2023/09/03 07:50:54;;;;;;;2.17;1.37;;;;;;;;;;20839394;28;20228;-86
2023/09/03 08:00:56;;;;;;;3.42;1.42;;;;;;;;;;20831222;28;20216;-86
2023/09/03 08:10:59;;;;;;;2.13;1.47;;;;;;;;;;20813829;28;20237;-86
2023/09/03 08:21:00;;;;;;;1.77;1.30;;;;;;;;;;20782729;28;20270;-86
2023/09/03 08:31:02;;;;;;;3.30;1.55;;;;;;;;;;20774163;28;20295;-84
2023/09/03 08:41:04;;;;;;;2.20;1.50;;;;;;;;;;20810335;28;20706;-86
2023/09/03 08:51:06;;;;;;;2.20;1.70;;;;;;;;;;20819864;28;20241;-86
2023/09/03 09:01:16;;;;;;;2.17;1.52;;;;;;;;;;20823838;28;20282;-87
2023/09/03 09:11:18;;;;;;;1.95;1.38;;;;;;;;;;20770311;28;20803;-86
2023/09/03 09:21:22;;;;;;;2.25;1.50;;;;;;;;;;20804054;28;20294;-86
2023/09/03 09:31:31;;;;;;;2.45;1.30;;;;;;;;;;20829739;28;20297;-86
2023/09/03 09:41:39;;;;;;;2.13;1.20;;;;;;;;;;20819450;28;20786;-86
2023/09/03 09:51:42;;;;;;;1.35;1.10;;;;;;;;;;20795550;28;20228;-85
2023/09/03 10:01:47;;;;;;;1.65;1.05;;;;;;;;;;20780500;28;20388;-84
2023/09/03 10:11:49;;;;;;;1.73;0.90;;;;;;;;;;20824765;28;20278;-84
2023/09/03 10:21:53;;;;;;;1.30;0.90;;;;;;;;;;20832215;28;20222;-83
2023/09/03 10:31:58;;;;;;;1.25;0.88;;;;;;;;;;20797809;28;20234;-83
2023/09/03 10:42:16;;;;;;;1.75;1.10;;;;;;;;;;20812546;28;20272;-83
2023/09/03 10:52:30;;;;;;;1.90;1.50;;;;;;;;;;20806483;28;20225;-84
2023/09/03 11:02:34;;;;;;;1.85;1.45;;;24.80;99.90;;;;;;20786817;28;20273;-83
2023/09/03 11:12:45;;;;;;;2.80;1.38;;;;;;;;;;20826736;28;20267;-84
2023/09/03 11:22:48;;;;;;;1.45;0.90;;;;;;;;;;20839782;28;20528;-83
2023/09/03 11:32:50;;;;;;;1.60;1.30;;;;;;;;;;20827448;28;20237;-85
2023/09/03 11:42:56;;;;;;;1.20;0.90;;;;;;;;;;20833699;28;20233;-82
2023/09/03 11:53:08;;;;;;;1.98;1.25;;;;;;;;;;20827551;28;20706;-84
2023/09/03 12:03:11;;;;;;;1.65;1.13;;;;;;;;;;20812481;28;20777;-82
2023/09/03 12:13:27;;;;;;;2.22;1.30;;;;;;;;;;20828106;28;20242;-84
2023/09/03 12:23:31;;;;;;;1.10;0.88;;;;;;;;;;20817694;28;20244;-84
2023/09/03 12:33:45;;;;;;;1.17;0.90;;;;;;;;;;20828476;28;20287;-83
2023/09/03 12:43:50;;;;;;;1.23;0.80;;;;;;;;;;20806147;28;20706;-84
2023/09/03 12:53:59;;;;;;;1.35;1.10;;;;;;;;;;20830072;28;20281;-83
2023/09/03 13:04:14;;;;;;;1.20;0.82;;;;;;;;;;20837455;28;20779;-83
2023/09/03 13:24:53;;;;;;;0.98;0.80;;;;;;;;;;20838391;28;20278;-82
2023/09/03 13:34:59;;;;;;;0.75;0.68;;;;;;;;;;20838268;28;20225;-82
2023/09/03 13:45:03;;;;;;;1.52;0.90;;;;;;;;;;20832401;28;20217;-83
2023/09/03 13:55:10;;;;;;;1.10;0.80;;;;;;;;;;20786830;28;20267;-83
2023/09/03 14:05:38;;;;;;;1.17;1.00;;;;;;;;;;20796580;28;20226;-83
2023/09/03 14:15:52;;;;;;;1.33;0.75;;;;;;;;;;20826118;28;20241;-82
2023/09/03 14:25:54;;;;;;;1.38;0.90;;;;;;;;;;20810666;28;20259;-82
2023/09/03 14:36:01;;;;;;;1.60;0.80;;;;;;;;;;20851515;28;20234;-83
2023/09/03 14:46:12;;;;;;;1.77;1.10;;;;;;;;;;20824046;28;20230;-82
2023/09/03 14:56:20;;;;;;;1.10;0.85;;;;;;;;;;20844269;28;20240;-84
2023/09/03 15:06:28;;;;;;;1.15;0.80;;;;;;;;;;20817960;28;20228;-83
2023/09/03 15:16:33;;;;;;;2.20;1.00;;;;;;;;;;20773531;28;20788;-82
2023/09/03 15:26:36;;;;;;;1.25;0.90;;;;;;;;;;20847334;28;20267;-82
2023/09/03 15:36:38;;;;;;;1.20;0.90;;;;;;;;;;20843847;28;20236;-83
2023/09/03 15:46:40;;;;;;;1.77;1.17;;;;;;;;;;20846864;28;20224;-82
2023/09/03 15:56:42;;;;;;;1.40;0.90;;;;;;;;;;20814564;28;20667;-83
2023/09/03 16:06:47;;;;;;;1.60;1.00;;;;;;;;;;20802722;28;20211;-83
2023/09/03 16:16:52;;;;;;;1.35;0.85;;;;;;;;;;20790012;28;20252;-81
2023/09/03 16:26:58;;;;;;;1.10;0.70;;;;;;;;;;20823223;28;20214;-82
2023/09/03 16:37:06;;;;;;;1.88;0.90;;;;;;;;;;20808407;28;20298;-82
2023/09/03 16:47:07;;;;;;;1.45;0.80;;;;;;;;;;20786912;28;20221;-81
2023/09/03 16:57:09;;;;;;;2.45;1.00;;;;;;;;;;20778169;28;20299;-85
2023/09/03 17:07:11;;;;;;;1.65;0.95;;;24.60;99.90;;;;;;20832944;28;20227;-83
2023/09/03 17:17:14;;;;;;;1.27;0.98;;;;;;;;;;20832870;28;20234;-83
2023/09/03 17:27:18;;;;;;;1.23;0.93;;;;;;;;;;20806179;28;20285;-83
2023/09/03 17:37:24;;;;;;;2.70;1.13;;;;;;;;;;20794455;28;20234;-82
2023/09/03 17:47:26;;;;;;;2.03;1.15;;;;;;;;;;20842468;28;20252;-81
2023/09/03 17:57:28;;;;;;;1.70;1.20;;;;;;;;;;20815379;28;20233;-81
2023/09/03 18:07:30;;;;;;;1.85;1.10;;;;;;;;;;20795533;28;20229;-83
2023/09/03 18:17:33;;;;;;;2.30;1.05;;;;;;;;;;20802260;28;20217;-83
2023/09/03 18:27:37;;;;;;;1.55;1.10;;;;;;;;;;20838898;28;20217;-83
2023/09/03 18:37:40;;;;;;;1.73;1.10;;;;;;;;;;20799704;28;20247;-82
2023/09/03 18:47:44;;;;;;;2.10;1.40;;;;;;;;;;20797561;28;20351;-81
2023/09/03 18:57:49;;;;;;;2.40;1.77;;;;;;;;;;20795925;28;20231;-81
2023/09/03 19:07:50;;;;;;;1.48;1.05;;;;;;;;;;20816370;28;20253;-81
2023/09/03 19:17:52;;;;;;;1.80;1.20;;;;;;;;;;20801046;28;20244;-81
2023/09/03 19:27:55;;;;;;;1.83;1.20;;;;;;;;;;20807328;28;20233;-81
2023/09/03 19:37:57;;;;;;;1.48;0.90;;;;;;;;;;20803545;28;20235;-81
2023/09/03 19:48:18;;;;;;;1.83;1.02;;;;;;;;;;20789633;28;20772;-81
2023/09/03 19:58:20;;;;;;;2.70;1.73;;;;;;;;;;20817951;28;20279;-83
2023/09/03 20:08:22;;;;;;;1.55;1.02;;;;;;;;;;20783380;28;20225;-84
2023/09/03 20:18:27;;;;;;;1.90;1.15;;;;;;;;;;20808076;28;20328;-83
2023/09/03 20:28:29;;;;;;;1.20;0.98;;;;;;;;;;20792108;28;20659;-84
2023/09/03 20:38:31;;;;;;;2.47;1.38;;;;;;;;;;20832302;28;20237;-84
2023/09/03 20:48:33;;;;;;;1.95;1.30;;;;;;;;;;20800314;28;20252;-84
2023/09/03 20:58:35;;;;;;;1.45;1.13;;;;;;;;;;20855599;28;20227;-85
2023/09/03 21:08:37;;;;;;;1.88;1.10;;;;;;;;;;20862686;28;20220;-85
2023/09/03 21:18:39;;;;;;;1.73;1.20;;;;;;;;;;20809335;28;20217;-86
2023/09/03 21:28:41;;;;;;;2.55;1.42;;;;;;;;;;20834413;28;20657;-83
2023/09/03 21:38:43;;;;;;;1.80;1.15;;;;;;;;;;20827974;28;20251;-82
2023/09/03 21:48:45;;;;;;;1.98;1.08;;;;;;;;;;20798129;28;20267;-83
2023/09/03 21:58:48;;;;;;;2.17;1.10;;;;;;;;;;20806031;28;20246;-83
2023/09/03 22:08:50;;;;;;;1.50;1.10;;;;;;;;;;20818153;28;20223;-83
2023/09/03 22:18:52;;;;;;;1.60;1.10;;;;;;;;;;20809584;28;20215;-82
2023/09/03 22:28:54;;;;;;;1.20;0.88;;;;;;;;;;20806568;28;20228;-84
2023/09/03 22:38:55;;;;;;;0.93;0.80;;;;;;;;;;20835709;28;20288;-85
2023/09/03 22:48:57;;;;;;;1.83;1.20;;;;;;;;;;20809167;28;20233;-84
2023/09/03 22:58:59;;;;;;;2.05;0.90;;;;;;;;;;20817506;28;20340;-84
2023/09/03 23:09:02;;;;;;;1.40;1.08;;;;;;;;;;20767016;28;20265;-85
2023/09/03 23:19:04;;;;;;;1.73;1.17;;;;;;;;;;20784245;28;20237;-84
2023/09/03 23:29:06;;;;;;;1.30;1.00;;;;;;;;;;20794292;28;20231;-84
2023/09/03 23:39:10;;;;;;;1.35;1.00;;;;;;;;;;20800758;28;20229;-83
2023/09/03 23:49:12;;;;;;;1.45;1.05;;;;;;;;;;20796893;28;20268;-84
2023/09/03 23:59:14;;;;;;;1.10;0.87;;;;;;;;;;20807240;28;20283;-84
